createdAt,value
2023-02-05T00:03:08.443Z,101634.59
2023-02-05T00:07:09.906Z,101634.50
2023-02-05T00:11:11.334Z,101638.88
2023-02-05T00:15:12.773Z,101639.47
2023-02-05T00:19:15.556Z,101633.75
2023-02-05T00:23:16.968Z,101629.91
2023-02-05T00:27:18.396Z,101629.16
2023-02-05T00:31:22.287Z,101617.25
2023-02-05T00:35:25.109Z,101623.91
2023-02-05T00:39:26.634Z,101619.44
2023-02-05T00:43:28.051Z,101622.09
2023-02-05T00:47:29.458Z,101630.97
2023-02-05T00:51:32.222Z,101632.78
2023-02-05T00:55:33.943Z,101625.56
2023-02-05T00:59:35.726Z,101632.41
2023-02-05T01:03:37.139Z,101643.47
2023-02-05T01:07:39.977Z,101642.50
2023-02-05T01:11:41.416Z,101637.50
2023-02-05T01:15:43.004Z,101645.97
2023-02-05T01:19:44.636Z,101648.03
2023-02-05T01:23:47.407Z,101630.00
2023-02-05T01:27:49.029Z,101627.44
2023-02-05T01:31:50.609Z,101621.63
2023-02-05T01:35:52.059Z,101630.28
2023-02-05T01:39:54.914Z,101614.63
2023-02-05T01:44:07.227Z,101608.81
2023-02-05T01:48:09.632Z,101596.88
2023-02-05T01:52:14.064Z,101587.16
2023-02-05T01:56:21.809Z,101589.34
2023-02-05T02:00:23.434Z,101574.09
2023-02-05T02:04:36.108Z,101583.66
2023-02-05T02:08:37.417Z,101569.69
2023-02-05T02:12:44.076Z,101572.03
2023-02-05T02:16:46.288Z,101560.91
2023-02-05T02:20:52.635Z,101550.13
2023-02-05T02:25:12.135Z,101545.34
2023-02-05T02:29:22.094Z,101528.00
2023-02-05T02:33:31.154Z,101543.47
2023-02-05T02:37:39.230Z,101532.59
2023-02-05T02:41:46.775Z,101526.00
2023-02-05T02:45:53.836Z,101526.47
2023-02-05T02:49:59.621Z,101519.78
2023-02-05T02:54:07.775Z,101518.25
2023-02-05T02:58:13.886Z,101511.72
2023-02-05T03:02:17.192Z,101504.28
2023-02-05T03:06:20.595Z,101492.56
2023-02-05T03:10:27.532Z,101491.53
2023-02-05T03:14:29.021Z,101492.84
2023-02-05T03:18:32.081Z,101500.44
2023-02-05T03:22:33.525Z,101497.16
2023-02-05T03:26:36.047Z,101487.19
2023-02-05T03:30:49.061Z,101483.69
2023-02-05T03:35:08.901Z,101494.75
2023-02-05T03:39:24.722Z,101490.31
2023-02-05T03:43:34.531Z,101489.50
2023-02-05T03:47:43.739Z,101491.38
2023-02-05T03:51:50.993Z,101496.66
2023-02-05T03:56:00.644Z,101505.53
2023-02-05T04:00:02.776Z,101504.41
2023-02-05T04:04:04.458Z,101499.47
2023-02-05T04:08:07.566Z,101502.69
2023-02-05T04:12:09.614Z,101502.03
2023-02-05T04:16:11.071Z,101493.94
2023-02-05T04:20:12.575Z,101500.94
2023-02-05T04:24:15.594Z,101496.72
2023-02-05T04:28:17.203Z,101497.56
2023-02-05T04:32:18.652Z,101498.09
2023-02-05T04:36:20.259Z,101504.13
2023-02-05T04:40:23.105Z,101501.09
2023-02-05T04:44:24.542Z,101502.22
2023-02-05T04:48:26.011Z,101498.19
2023-02-05T04:52:27.495Z,101504.97
2023-02-05T04:56:30.265Z,101506.09
2023-02-05T05:00:31.709Z,101503.94
2023-02-05T05:04:33.301Z,101517.84
2023-02-05T05:08:35.003Z,101513.06
2023-02-05T05:12:38.539Z,101521.53
2023-02-05T05:16:39.953Z,101522.41
2023-02-05T05:20:42.707Z,101520.31
2023-02-05T05:24:44.340Z,101527.50
2023-02-05T05:28:47.128Z,101535.81
2023-02-05T05:32:48.540Z,101538.41
2023-02-05T05:36:50.062Z,101530.31
2023-02-05T05:40:51.502Z,101527.56
2023-02-05T05:44:54.295Z,101529.44
2023-02-05T05:48:57.143Z,101510.38
2023-02-05T05:52:58.572Z,101515.53
2023-02-05T05:57:00.010Z,101518.63
2023-02-05T06:01:03.216Z,101514.78
2023-02-05T06:05:04.906Z,101512.72
2023-02-05T06:09:06.292Z,101520.16
2023-02-05T06:13:07.771Z,101515.28
2023-02-05T06:17:10.546Z,101519.97
2023-02-05T06:21:11.980Z,101519.97
2023-02-05T06:25:13.454Z,101534.06
2023-02-05T06:29:14.876Z,101532.50
2023-02-05T06:33:17.798Z,101536.34
2023-02-05T06:37:19.255Z,101537.28
2023-02-05T06:41:20.806Z,101541.31
2023-02-05T06:45:22.697Z,101537.13
2023-02-05T06:49:25.698Z,101543.28
2023-02-05T06:53:27.407Z,101539.38
2023-02-05T06:57:28.855Z,101530.13
2023-02-05T07:01:30.453Z,101526.47
2023-02-05T07:05:34.587Z,101525.31
2023-02-05T07:09:36.227Z,101534.84
2023-02-05T07:13:37.666Z,101529.72
2023-02-05T07:17:39.093Z,101518.88
2023-02-05T07:21:41.829Z,101525.69
2023-02-05T07:25:43.274Z,101525.38
2023-02-05T07:29:44.718Z,101538.59
2023-02-05T07:33:46.849Z,101530.84
2023-02-05T07:37:49.625Z,101539.59
2023-02-05T07:41:51.054Z,101543.88
2023-02-05T07:45:56.425Z,101529.38
2023-02-05T07:49:57.874Z,101528.06
2023-02-05T07:54:00.625Z,101532.97
2023-02-05T07:58:02.043Z,101541.56
2023-02-05T08:02:03.853Z,101540.91
2023-02-05T08:06:06.867Z,101538.03
2023-02-05T08:10:13.162Z,101521.84
2023-02-05T08:14:14.624Z,101518.44
2023-02-05T08:18:16.101Z,101513.72
2023-02-05T08:22:17.579Z,101504.28
2023-02-05T08:26:20.452Z,101492.47
2023-02-05T08:30:22.041Z,101491.19
2023-02-05T08:34:23.550Z,101497.09
2023-02-05T08:38:25.042Z,101490.75
2023-02-05T08:42:27.878Z,101488.38
2023-02-05T08:46:37.360Z,101469.19
2023-02-05T08:50:48.918Z,101452.63
2023-02-05T08:54:50.395Z,101451.44
2023-02-05T08:58:53.205Z,101456.06
2023-02-05T09:02:54.683Z,101456.81
2023-02-05T09:06:56.239Z,101464.75
2023-02-05T09:10:57.874Z,101462.41
2023-02-05T09:15:00.701Z,101463.22
2023-02-05T09:19:02.201Z,101463.56
2023-02-05T09:23:03.644Z,101454.78
2023-02-05T09:27:06.704Z,101454.44
2023-02-05T09:31:12.024Z,101461.47
2023-02-05T09:35:13.562Z,101457.78
2023-02-05T09:39:34.578Z,101440.94
2023-02-05T09:43:48.215Z,101440.97
2023-02-05T09:48:00.943Z,101436.56
2023-02-05T09:52:04.984Z,101440.72
2023-02-05T09:56:09.111Z,101437.56
2023-02-05T10:00:20.357Z,101435.81
2023-02-05T10:04:23.675Z,101420.41
2023-02-05T10:08:33.303Z,101425.03
2023-02-05T10:12:52.673Z,101432.56
2023-02-05T10:17:08.352Z,101412.50
2023-02-05T10:21:25.923Z,101425.47
2023-02-05T10:25:38.478Z,101422.53
2023-02-05T10:29:48.437Z,101402.41
2023-02-05T10:33:52.113Z,101403.38
2023-02-05T10:37:57.715Z,101410.69
2023-02-05T10:42:04.579Z,101401.13
2023-02-05T10:46:10.851Z,101406.66
2023-02-05T10:50:19.557Z,101411.09
2023-02-05T10:54:27.626Z,101398.50
2023-02-05T10:58:38.158Z,101387.50
2023-02-05T11:02:42.168Z,101377.50
2023-02-05T11:06:47.831Z,101383.03
2023-02-05T11:10:53.802Z,101381.16
2023-02-05T11:14:57.621Z,101372.41
2023-02-05T11:19:00.541Z,101364.06
2023-02-05T11:23:08.095Z,101368.56
2023-02-05T11:27:28.785Z,101368.56
2023-02-05T11:31:33.744Z,101372.97
2023-02-05T11:35:35.333Z,101364.53
2023-02-05T11:39:39.296Z,101357.16
2023-02-05T11:43:49.019Z,101350.28
2023-02-05T11:47:50.624Z,101349.19
2023-02-05T11:51:56.086Z,101348.63
2023-02-05T11:56:01.795Z,101334.25
2023-02-05T12:00:20.923Z,101330.19
2023-02-05T12:04:23.770Z,101329.66
2023-02-05T12:08:34.590Z,101338.44
2023-02-05T12:12:42.040Z,101330.81
2023-02-05T12:16:54.600Z,101331.34
2023-02-05T12:21:07.235Z,101325.41
2023-02-05T12:25:20.640Z,101331.34
2023-02-05T12:29:49.992Z,101325.97
2023-02-05T12:34:16.649Z,101321.78
2023-02-05T12:38:32.318Z,101326.34
2023-02-05T12:42:37.057Z,101324.88
2023-02-05T12:46:47.847Z,101323.75
2023-02-05T12:51:05.616Z,101315.78
2023-02-05T12:55:20.992Z,101314.22
2023-02-05T12:59:33.448Z,101313.31
2023-02-05T13:03:40.885Z,101310.94
2023-02-05T13:07:46.990Z,101310.66
2023-02-05T13:11:54.660Z,101312.63
2023-02-05T13:16:02.270Z,101312.38
2023-02-05T13:20:07.268Z,101302.97
2023-02-05T13:24:23.311Z,101301.53
2023-02-05T13:28:37.794Z,101295.75
2023-02-05T13:32:42.658Z,101298.31
2023-02-05T13:37:15.246Z,101301.97
2023-02-05T13:41:52.501Z,101308.31
2023-02-05T13:46:33.488Z,101313.75
2023-02-05T13:50:54.947Z,101322.56
2023-02-05T13:55:33.551Z,101326.56
2023-02-05T13:59:39.791Z,101326.78
2023-02-05T14:03:52.451Z,101330.56
2023-02-05T14:07:54.349Z,101335.38
2023-02-05T14:11:57.973Z,101340.09
2023-02-05T14:16:35.629Z,101318.88
2023-02-05T14:20:39.446Z,101315.44
2023-02-05T14:24:46.836Z,101293.81
2023-02-05T14:28:52.331Z,101303.16
2023-02-05T14:33:00.210Z,101306.19
2023-02-05T14:37:02.080Z,101302.97
2023-02-05T14:41:11.542Z,101309.81
2023-02-05T14:45:15.868Z,101319.44
2023-02-05T14:49:24.020Z,101328.03
2023-02-05T14:53:25.702Z,101338.59
2023-02-05T14:57:33.915Z,101339.38
2023-02-05T15:01:47.414Z,101342.00
2023-02-05T15:05:53.936Z,101330.16
2023-02-05T15:10:00.343Z,101341.16
2023-02-05T15:14:20.489Z,101360.75
2023-02-05T15:18:26.778Z,101346.03
2023-02-05T15:22:35.698Z,101344.91
2023-02-05T15:26:42.595Z,101352.13
2023-02-05T15:30:53.017Z,101344.47
2023-02-05T15:34:58.447Z,101334.06
2023-02-05T15:39:08.412Z,101338.25
2023-02-05T15:43:15.716Z,101327.75
2023-02-05T15:47:20.320Z,101324.84
2023-02-05T15:51:29.064Z,101330.25
2023-02-05T15:55:33.434Z,101330.03
2023-02-05T15:59:35.134Z,101328.81
2023-02-05T16:03:37.215Z,101326.41
2023-02-05T16:07:41.501Z,101331.78
2023-02-05T16:11:45.237Z,101349.34
2023-02-05T16:15:54.892Z,101359.13
2023-02-05T16:20:14.892Z,101361.78
2023-02-05T16:24:25.233Z,101365.44
2023-02-05T16:28:35.566Z,101366.66
2023-02-05T16:32:39.879Z,101389.94
2023-02-05T16:36:44.307Z,101407.06
2023-02-05T16:40:48.534Z,101415.63
2023-02-05T16:45:04.875Z,101417.84
2023-02-05T16:49:29.216Z,101428.50
2023-02-05T16:53:32.571Z,101418.66
2023-02-05T16:57:37.187Z,101438.59
2023-02-05T17:01:43.729Z,101432.22
2023-02-05T17:05:56.616Z,101417.44
2023-02-05T17:10:20.597Z,101412.50
2023-02-05T17:14:28.831Z,101435.03
2023-02-05T17:18:31.823Z,101431.19
2023-02-05T17:22:33.492Z,101436.75
2023-02-05T17:26:38.745Z,101451.53
2023-02-05T17:30:41.314Z,101444.78
2023-02-05T17:34:44.613Z,101432.16
2023-02-05T17:38:46.113Z,101432.50
2023-02-05T17:42:47.775Z,101436.56
2023-02-05T17:46:49.192Z,101434.13
2023-02-05T17:50:51.933Z,101433.38
2023-02-05T17:54:53.465Z,101429.09
2023-02-05T17:58:55.376Z,101431.34
2023-02-05T18:02:56.878Z,101429.28
2023-02-05T18:06:59.742Z,101441.28
2023-02-05T18:11:01.227Z,101456.50
2023-02-05T18:15:04.192Z,101452.84
2023-02-05T18:19:05.773Z,101460.13
2023-02-05T18:23:09.805Z,101451.53
2023-02-05T18:27:12.385Z,101448.09
2023-02-05T18:31:14.622Z,101458.28
2023-02-05T18:35:16.219Z,101458.63
2023-02-05T18:39:19.297Z,101466.81
2023-02-05T18:43:20.772Z,101456.13
2023-02-05T18:47:22.298Z,101451.38
2023-02-05T18:51:23.894Z,101445.81
2023-02-05T18:55:26.745Z,101464.84
2023-02-05T18:59:28.206Z,101472.78
2023-02-05T19:03:29.643Z,101474.09
2023-02-05T19:07:31.140Z,101473.84
2023-02-05T19:11:33.920Z,101481.50
2023-02-05T19:15:35.457Z,101485.25
2023-02-05T19:19:37.053Z,101487.09
2023-02-05T19:23:39.018Z,101499.97
2023-02-05T19:27:41.771Z,101487.75
2023-02-05T19:31:43.955Z,101484.91
2023-02-05T19:35:45.411Z,101489.94
2023-02-05T19:39:46.840Z,101503.22
2023-02-05T19:43:52.135Z,101500.84
2023-02-05T19:47:53.554Z,101506.28
2023-02-05T19:51:55.302Z,101500.34
2023-02-05T19:56:01.394Z,101500.72
2023-02-05T20:00:04.850Z,101509.91
2023-02-05T20:04:08.765Z,101507.03
2023-02-05T20:08:10.190Z,101515.41
2023-02-05T20:12:12.979Z,101512.97
2023-02-05T20:16:17.728Z,101491.00
2023-02-05T20:20:32.657Z,101488.16
2023-02-05T20:24:34.848Z,101494.53
2023-02-05T20:28:38.810Z,101498.91
2023-02-05T20:32:44.394Z,101505.31
2023-02-05T20:36:46.980Z,101506.28
2023-02-05T20:40:48.408Z,101505.25
2023-02-05T20:44:49.949Z,101508.47
2023-02-05T20:48:53.056Z,101508.69
2023-02-05T20:52:54.528Z,101489.97
2023-02-05T20:56:55.983Z,101487.28
2023-02-05T21:01:05.379Z,101498.41
2023-02-05T21:05:08.406Z,101516.97
2023-02-05T21:09:10.539Z,101507.47
2023-02-05T21:13:11.991Z,101520.63
2023-02-05T21:17:13.414Z,101526.47
2023-02-05T21:21:18.218Z,101537.56
2023-02-05T21:25:19.691Z,101536.78
2023-02-05T21:29:21.375Z,101541.94
2023-02-05T21:33:22.787Z,101551.63
2023-02-05T21:37:25.528Z,101561.66
2023-02-05T21:41:27.317Z,101579.63
2023-02-05T21:45:28.764Z,101573.38
2023-02-05T21:49:30.428Z,101582.91
2023-02-05T21:58:39.098Z,101596.38
2023-02-05T22:02:40.561Z,101572.59
2023-02-05T22:06:42.867Z,101571.06
2023-02-05T22:10:44.292Z,101590.00
2023-02-05T22:14:47.407Z,101609.31
2023-02-05T22:18:49.526Z,101625.66
2023-02-05T22:22:50.967Z,101619.78
2023-02-05T22:26:52.762Z,101629.59
2023-02-05T22:31:00.932Z,101621.09
2023-02-05T22:35:02.474Z,101619.28
2023-02-05T22:39:05.456Z,101616.06
2023-02-05T22:43:06.965Z,101607.22
2023-02-05T22:47:09.785Z,101597.47
2023-02-05T22:51:13.832Z,101604.03
2023-02-05T22:55:15.279Z,101610.31
2023-02-05T22:59:16.709Z,101617.72
2023-02-05T23:03:19.562Z,101616.03
2023-02-05T23:07:21.007Z,101628.44
2023-02-05T23:11:24.179Z,101630.69
2023-02-05T23:15:25.606Z,101635.47
2023-02-05T23:19:28.473Z,101638.34
2023-02-05T23:23:29.938Z,101636.16
2023-02-05T23:27:32.734Z,101638.59
2023-02-05T23:31:34.654Z,101619.13
2023-02-05T23:35:37.679Z,101613.56
2023-02-05T23:39:39.252Z,101606.16
2023-02-05T23:43:40.900Z,101607.22
2023-02-05T23:47:42.357Z,101596.66
2023-02-05T23:51:45.194Z,101605.41
2023-02-05T23:55:48.602Z,101613.91
2023-02-05T23:59:50.053Z,101624.28
